CA-0347 weather

CLOSED Smoky Tower Airport
Alberta, Canada

Public forecast

Using degrees Celsius for public forecast. Weather courtesy of forecast.io.

Closest aviation weather report (METAR) to Smoky Tower Airport

Closest report is Grande Prairie Airport, 51.2 nm (94.9 km) NNW. Retrieved 2020/06/04 23:00 UTC (32 minutes ago):

CYQU 042300Z 27006G15KT 210V300 25SM SCT060TCU BKN260 17/01 A2988 RMK TCU3CI3 SLP136 DENSITY ALT 3000FT

Closest aviation forecast (TAF) to Smoky Tower Airport

Closest forecast is Grande Prairie Airport, 51.2 nm (94.9 km) NNW. Retrieved 2020/06/04 19:42 UTC (4 hours ago):

TAF CYQU 041838Z 0419/0507 29006KT P6SM FEW050 BKN240 FM042000 29008KT P6SM BKN060 TEMPO 0420/0503 P6SM -SHRA VCTS BKN060CB FM050300 20008KT P6SM BKN080 RMK NXT FCST BY 050100Z